<?xml version="1.0" encoding="UTF-8" standalone="no" ?>
<gpx xmlns="http://www.topografix.com/GPX/1/1" xmlns:xsi="http://www.w3.org/2001/XMLSchema-instance" xsi:schemaLocation="http://www.topografix.com/GPX/1/1 http://www.topografix.com/GPX/1/1/gpx.xsd" version="1.1" creator="VisuGPX - https://www.visugpx.com">
  <metadata>
    <name>BRC Douce avec Guy Parc Caillebotte</name>
    <desc><![CDATA[Promenade au bord de l'Yerres (Ile Panchou fermée pour travaux) ]]></desc>
  </metadata>
  <trk>
    <name><![CDATA[BRC Douce au Parc Caillebotte avec Guy]]></name>
    <extensions>
      <line xmlns="http://www.topografix.com/GPX/gpx_style/0/2">
        <color>0000FF</color>
        <width>4</width>
      </line>
    </extensions>
    <trkseg>
      <trkpt lat="48.699" lon="2.49459">
        <ele>38</ele>
        <time>2024-04-04T13:33:22+02:00</time>
      </trkpt>
      <trkpt lat="48.69927" lon="2.49437">
        <ele>37.7</ele>
      </trkpt>
      <trkpt lat="48.69926" lon="2.49496">
        <ele>37.7</ele>
      </trkpt>
      <trkpt lat="48.69949" lon="2.49493">
        <ele>37.2</ele>
      </trkpt>
      <trkpt lat="48.69975" lon="2.495">
        <ele>37</ele>
      </trkpt>
      <trkpt lat="48.69998" lon="2.49528">
        <ele>37</ele>
      </trkpt>
      <trkpt lat="48.70014" lon="2.49571">
        <ele>36.7</ele>
      </trkpt>
      <trkpt lat="48.7003" lon="2.49572">
        <ele>41</ele>
        <time>2024-04-04T13:33:42+02:00</time>
      </trkpt>
      <trkpt lat="48.70045" lon="2.49548">
        <ele>38</ele>
        <time>2024-04-04T13:34:03+02:00</time>
      </trkpt>
      <trkpt lat="48.70057" lon="2.49517">
        <ele>37</ele>
        <time>2024-04-04T13:34:29+02:00</time>
      </trkpt>
      <trkpt lat="48.70073" lon="2.49491">
        <ele>37</ele>
        <time>2024-04-04T13:34:55+02:00</time>
      </trkpt>
      <trkpt lat="48.70091" lon="2.49469">
        <ele>37</ele>
        <time>2024-04-04T13:35:22+02:00</time>
      </trkpt>
      <trkpt lat="48.70111" lon="2.49453">
        <ele>37</ele>
        <time>2024-04-04T13:35:46+02:00</time>
      </trkpt>
      <trkpt lat="48.70129" lon="2.49433">
        <ele>37</ele>
        <time>2024-04-04T13:36:10+02:00</time>
      </trkpt>
      <trkpt lat="48.70147" lon="2.49412">
        <ele>37</ele>
        <time>2024-04-04T13:36:36+02:00</time>
      </trkpt>
      <trkpt lat="48.70168" lon="2.49426">
        <ele>37</ele>
        <time>2024-04-04T13:38:05+02:00</time>
      </trkpt>
      <trkpt lat="48.70181" lon="2.49455">
        <ele>38</ele>
        <time>2024-04-04T13:38:26+02:00</time>
      </trkpt>
      <trkpt lat="48.70204" lon="2.49452">
        <ele>37</ele>
        <time>2024-04-04T13:38:52+02:00</time>
      </trkpt>
      <trkpt lat="48.70227" lon="2.49449">
        <ele>37</ele>
        <time>2024-04-04T13:39:14+02:00</time>
      </trkpt>
      <trkpt lat="48.70249" lon="2.49448">
        <ele>36</ele>
        <time>2024-04-04T13:39:34+02:00</time>
      </trkpt>
      <trkpt lat="48.70272" lon="2.49448">
        <ele>37</ele>
        <time>2024-04-04T13:39:54+02:00</time>
      </trkpt>
      <trkpt lat="48.70295" lon="2.4945">
        <ele>36</ele>
        <time>2024-04-04T13:40:16+02:00</time>
      </trkpt>
      <trkpt lat="48.70318" lon="2.49454">
        <ele>37</ele>
        <time>2024-04-04T13:40:42+02:00</time>
      </trkpt>
      <trkpt lat="48.70341" lon="2.49454">
        <ele>36</ele>
        <time>2024-04-04T13:41:31+02:00</time>
      </trkpt>
      <trkpt lat="48.70364" lon="2.49458">
        <ele>36</ele>
        <time>2024-04-04T13:41:49+02:00</time>
      </trkpt>
      <trkpt lat="48.70385" lon="2.49472">
        <ele>36</ele>
        <time>2024-04-04T13:42:07+02:00</time>
      </trkpt>
      <trkpt lat="48.704" lon="2.49498">
        <ele>35</ele>
        <time>2024-04-04T13:42:26+02:00</time>
      </trkpt>
      <trkpt lat="48.70413" lon="2.49527">
        <ele>37</ele>
        <time>2024-04-04T13:42:42+02:00</time>
      </trkpt>
      <trkpt lat="48.7041" lon="2.49565">
        <ele>36</ele>
        <time>2024-04-04T13:43:02+02:00</time>
      </trkpt>
      <trkpt lat="48.70407" lon="2.496">
        <ele>36</ele>
        <time>2024-04-04T13:43:24+02:00</time>
      </trkpt>
      <trkpt lat="48.70421" lon="2.49628">
        <ele>36</ele>
        <time>2024-04-04T13:43:51+02:00</time>
      </trkpt>
      <trkpt lat="48.70436" lon="2.49654">
        <ele>36</ele>
        <time>2024-04-04T13:44:18+02:00</time>
      </trkpt>
      <trkpt lat="48.70457" lon="2.49669">
        <ele>37</ele>
        <time>2024-04-04T13:45:07+02:00</time>
      </trkpt>
      <trkpt lat="48.7048" lon="2.49671">
        <ele>37</ele>
        <time>2024-04-04T13:45:33+02:00</time>
      </trkpt>
      <trkpt lat="48.70503" lon="2.49676">
        <ele>37</ele>
        <time>2024-04-04T13:45:51+02:00</time>
      </trkpt>
      <trkpt lat="48.70525" lon="2.49665">
        <ele>36</ele>
        <time>2024-04-04T13:46:16+02:00</time>
      </trkpt>
      <trkpt lat="48.70547" lon="2.49674">
        <ele>39</ele>
        <time>2024-04-04T13:46:39+02:00</time>
      </trkpt>
      <trkpt lat="48.70566" lon="2.49694">
        <ele>37</ele>
        <time>2024-04-04T13:46:59+02:00</time>
      </trkpt>
      <trkpt lat="48.70588" lon="2.49708">
        <ele>37</ele>
        <time>2024-04-04T13:47:21+02:00</time>
      </trkpt>
      <trkpt lat="48.70611" lon="2.49711">
        <ele>37</ele>
        <time>2024-04-04T13:47:59+02:00</time>
      </trkpt>
      <trkpt lat="48.70631" lon="2.49695">
        <ele>37</ele>
        <time>2024-04-04T13:48:21+02:00</time>
      </trkpt>
      <trkpt lat="48.70634" lon="2.4973">
        <ele>36</ele>
        <time>2024-04-04T13:49:36+02:00</time>
      </trkpt>
      <trkpt lat="48.70648" lon="2.49758">
        <ele>37</ele>
        <time>2024-04-04T13:50:02+02:00</time>
      </trkpt>
      <trkpt lat="48.70668" lon="2.49775">
        <ele>36</ele>
        <time>2024-04-04T13:50:18+02:00</time>
      </trkpt>
      <trkpt lat="48.7069" lon="2.4976">
        <ele>38</ele>
        <time>2024-04-04T13:50:48+02:00</time>
      </trkpt>
      <trkpt lat="48.70706" lon="2.49785">
        <ele>37</ele>
        <time>2024-04-04T13:51:18+02:00</time>
      </trkpt>
      <trkpt lat="48.70712" lon="2.49821">
        <ele>38</ele>
        <time>2024-04-04T13:51:39+02:00</time>
      </trkpt>
      <trkpt lat="48.70718" lon="2.49856">
        <ele>39</ele>
        <time>2024-04-04T13:52:01+02:00</time>
      </trkpt>
      <trkpt lat="48.70719" lon="2.4982">
        <ele>39</ele>
        <time>2024-04-04T13:52:42+02:00</time>
      </trkpt>
      <trkpt lat="48.70732" lon="2.49792">
        <ele>38</ele>
        <time>2024-04-04T13:53:07+02:00</time>
      </trkpt>
      <trkpt lat="48.7072" lon="2.49762">
        <ele>37</ele>
        <time>2024-04-04T13:53:33+02:00</time>
      </trkpt>
      <trkpt lat="48.70714" lon="2.49728">
        <ele>37</ele>
        <time>2024-04-04T13:53:58+02:00</time>
      </trkpt>
      <trkpt lat="48.70737" lon="2.49721">
        <ele>34</ele>
        <time>2024-04-04T14:00:36+02:00</time>
      </trkpt>
      <trkpt lat="48.7076" lon="2.49726">
        <ele>36</ele>
        <time>2024-04-04T14:01:05+02:00</time>
      </trkpt>
      <trkpt lat="48.70783" lon="2.49733">
        <ele>35</ele>
        <time>2024-04-04T14:01:30+02:00</time>
      </trkpt>
      <trkpt lat="48.7079" lon="2.497">
        <ele>38</ele>
        <time>2024-04-04T14:02:04+02:00</time>
      </trkpt>
      <trkpt lat="48.70802" lon="2.49671">
        <ele>36</ele>
        <time>2024-04-04T14:02:41+02:00</time>
      </trkpt>
      <trkpt lat="48.70805" lon="2.49636">
        <ele>36</ele>
        <time>2024-04-04T14:03:20+02:00</time>
      </trkpt>
      <trkpt lat="48.70797" lon="2.49604">
        <ele>36</ele>
        <time>2024-04-04T14:03:50+02:00</time>
      </trkpt>
      <trkpt lat="48.70781" lon="2.49579">
        <ele>36</ele>
        <time>2024-04-04T14:04:22+02:00</time>
      </trkpt>
      <trkpt lat="48.70789" lon="2.49547">
        <ele>37</ele>
        <time>2024-04-04T14:05:01+02:00</time>
      </trkpt>
      <trkpt lat="48.7081" lon="2.49529">
        <ele>38</ele>
        <time>2024-04-04T14:05:25+02:00</time>
      </trkpt>
      <trkpt lat="48.7083" lon="2.49513">
        <ele>37</ele>
        <time>2024-04-04T14:05:48+02:00</time>
      </trkpt>
      <trkpt lat="48.70848" lon="2.4949">
        <ele>35</ele>
        <time>2024-04-04T14:06:11+02:00</time>
      </trkpt>
      <trkpt lat="48.70868" lon="2.49469">
        <ele>38</ele>
        <time>2024-04-04T14:06:32+02:00</time>
      </trkpt>
      <trkpt lat="48.7089" lon="2.49454">
        <ele>39</ele>
        <time>2024-04-04T14:06:56+02:00</time>
      </trkpt>
      <trkpt lat="48.7091" lon="2.49433">
        <ele>37</ele>
        <time>2024-04-04T14:07:22+02:00</time>
      </trkpt>
      <trkpt lat="48.70931" lon="2.4942">
        <ele>39</ele>
        <time>2024-04-04T14:07:48+02:00</time>
      </trkpt>
      <trkpt lat="48.70939" lon="2.49387">
        <ele>37</ele>
        <time>2024-04-04T14:08:07+02:00</time>
      </trkpt>
      <trkpt lat="48.70947" lon="2.49353">
        <ele>40</ele>
        <time>2024-04-04T14:08:28+02:00</time>
      </trkpt>
      <trkpt lat="48.70955" lon="2.49319">
        <ele>40</ele>
        <time>2024-04-04T14:08:58+02:00</time>
      </trkpt>
      <trkpt lat="48.70956" lon="2.49283">
        <ele>41</ele>
        <time>2024-04-04T14:09:23+02:00</time>
      </trkpt>
      <trkpt lat="48.70956" lon="2.49246">
        <ele>43</ele>
        <time>2024-04-04T14:09:46+02:00</time>
      </trkpt>
      <trkpt lat="48.70961" lon="2.49211">
        <ele>44</ele>
        <time>2024-04-04T14:10:11+02:00</time>
      </trkpt>
      <trkpt lat="48.70969" lon="2.49179">
        <ele>44</ele>
        <time>2024-04-04T14:10:35+02:00</time>
      </trkpt>
      <trkpt lat="48.70979" lon="2.49146">
        <ele>48</ele>
        <time>2024-04-04T14:10:59+02:00</time>
      </trkpt>
      <trkpt lat="48.70998" lon="2.49128">
        <ele>45</ele>
        <time>2024-04-04T14:11:32+02:00</time>
      </trkpt>
      <trkpt lat="48.71021" lon="2.49128">
        <ele>45</ele>
        <time>2024-04-04T14:12:23+02:00</time>
      </trkpt>
      <trkpt lat="48.71042" lon="2.4914">
        <ele>42</ele>
        <time>2024-04-04T14:12:46+02:00</time>
      </trkpt>
      <trkpt lat="48.71063" lon="2.49155">
        <ele>41</ele>
        <time>2024-04-04T14:13:10+02:00</time>
      </trkpt>
      <trkpt lat="48.71078" lon="2.49129">
        <ele>42</ele>
        <time>2024-04-04T14:13:38+02:00</time>
      </trkpt>
      <trkpt lat="48.71099" lon="2.49117">
        <ele>41</ele>
        <time>2024-04-04T14:14:11+02:00</time>
      </trkpt>
      <trkpt lat="48.71123" lon="2.49122">
        <ele>42</ele>
        <time>2024-04-04T14:14:32+02:00</time>
      </trkpt>
      <trkpt lat="48.71146" lon="2.49121">
        <ele>40</ele>
        <time>2024-04-04T14:14:57+02:00</time>
      </trkpt>
      <trkpt lat="48.71169" lon="2.49125">
        <ele>39</ele>
        <time>2024-04-04T14:15:19+02:00</time>
      </trkpt>
      <trkpt lat="48.71193" lon="2.49121">
        <ele>39</ele>
        <time>2024-04-04T14:15:44+02:00</time>
      </trkpt>
      <trkpt lat="48.71216" lon="2.49119">
        <ele>39</ele>
        <time>2024-04-04T14:16:08+02:00</time>
      </trkpt>
      <trkpt lat="48.71239" lon="2.49112">
        <ele>40</ele>
        <time>2024-04-04T14:16:29+02:00</time>
      </trkpt>
      <trkpt lat="48.71244" lon="2.49077">
        <ele>39</ele>
        <time>2024-04-04T14:17:03+02:00</time>
      </trkpt>
      <trkpt lat="48.71246" lon="2.49043">
        <ele>41</ele>
        <time>2024-04-04T14:17:27+02:00</time>
      </trkpt>
      <trkpt lat="48.71255" lon="2.49011">
        <ele>41</ele>
        <time>2024-04-04T14:18:09+02:00</time>
      </trkpt>
      <trkpt lat="48.71261" lon="2.48978">
        <ele>42</ele>
        <time>2024-04-04T14:18:38+02:00</time>
      </trkpt>
      <trkpt lat="48.71273" lon="2.48949">
        <ele>40</ele>
        <time>2024-04-04T14:19:07+02:00</time>
      </trkpt>
      <trkpt lat="48.71296" lon="2.48955">
        <ele>40</ele>
        <time>2024-04-04T14:19:50+02:00</time>
      </trkpt>
      <trkpt lat="48.71316" lon="2.48971">
        <ele>41</ele>
        <time>2024-04-04T14:20:14+02:00</time>
      </trkpt>
      <trkpt lat="48.71339" lon="2.48984">
        <ele>40</ele>
        <time>2024-04-04T14:20:37+02:00</time>
      </trkpt>
      <trkpt lat="48.71361" lon="2.48977">
        <ele>38</ele>
        <time>2024-04-04T14:21:03+02:00</time>
      </trkpt>
      <trkpt lat="48.71372" lon="2.48946">
        <ele>39</ele>
        <time>2024-04-04T14:21:38+02:00</time>
      </trkpt>
      <trkpt lat="48.71393" lon="2.48931">
        <ele>38</ele>
        <time>2024-04-04T14:22:32+02:00</time>
      </trkpt>
      <trkpt lat="48.71381" lon="2.48901">
        <ele>39</ele>
        <time>2024-04-04T14:24:11+02:00</time>
      </trkpt>
      <trkpt lat="48.71389" lon="2.4887">
        <ele>38</ele>
        <time>2024-04-04T14:24:41+02:00</time>
      </trkpt>
      <trkpt lat="48.71402" lon="2.48841">
        <ele>39</ele>
        <time>2024-04-04T14:25:15+02:00</time>
      </trkpt>
      <trkpt lat="48.71417" lon="2.48814">
        <ele>38</ele>
        <time>2024-04-04T14:25:42+02:00</time>
      </trkpt>
      <trkpt lat="48.71426" lon="2.48782">
        <ele>37</ele>
        <time>2024-04-04T14:27:02+02:00</time>
      </trkpt>
      <trkpt lat="48.71443" lon="2.48758">
        <ele>37</ele>
        <time>2024-04-04T14:32:55+02:00</time>
      </trkpt>
      <trkpt lat="48.71459" lon="2.48734">
        <ele>37</ele>
        <time>2024-04-04T14:33:23+02:00</time>
      </trkpt>
      <trkpt lat="48.71478" lon="2.48714">
        <ele>37</ele>
        <time>2024-04-04T14:33:56+02:00</time>
      </trkpt>
      <trkpt lat="48.71488" lon="2.48684">
        <ele>37</ele>
        <time>2024-04-04T14:34:20+02:00</time>
      </trkpt>
      <trkpt lat="48.71491" lon="2.48649">
        <ele>39</ele>
        <time>2024-04-04T14:34:50+02:00</time>
      </trkpt>
      <trkpt lat="48.71499" lon="2.48617">
        <ele>39</ele>
        <time>2024-04-04T14:35:15+02:00</time>
      </trkpt>
      <trkpt lat="48.71513" lon="2.48587">
        <ele>37</ele>
        <time>2024-04-04T14:35:39+02:00</time>
      </trkpt>
      <trkpt lat="48.71521" lon="2.48554">
        <ele>37</ele>
        <time>2024-04-04T14:36:05+02:00</time>
      </trkpt>
      <trkpt lat="48.71529" lon="2.48521">
        <ele>36</ele>
        <time>2024-04-04T14:36:29+02:00</time>
      </trkpt>
      <trkpt lat="48.71527" lon="2.48487">
        <ele>36</ele>
        <time>2024-04-04T14:36:52+02:00</time>
      </trkpt>
      <trkpt lat="48.71511" lon="2.48461">
        <ele>38</ele>
        <time>2024-04-04T14:37:11+02:00</time>
      </trkpt>
      <trkpt lat="48.7153" lon="2.48439">
        <ele>38</ele>
        <time>2024-04-04T14:38:15+02:00</time>
      </trkpt>
      <trkpt lat="48.7154" lon="2.48406">
        <ele>36</ele>
        <time>2024-04-04T14:38:42+02:00</time>
      </trkpt>
      <trkpt lat="48.71559" lon="2.48385">
        <ele>34</ele>
        <time>2024-04-04T14:39:08+02:00</time>
      </trkpt>
      <trkpt lat="48.71566" lon="2.48353">
        <ele>35</ele>
        <time>2024-04-04T14:39:33+02:00</time>
      </trkpt>
      <trkpt lat="48.71571" lon="2.48319">
        <ele>34</ele>
        <time>2024-04-04T14:40:11+02:00</time>
      </trkpt>
      <trkpt lat="48.71583" lon="2.48289">
        <ele>35</ele>
        <time>2024-04-04T14:42:46+02:00</time>
      </trkpt>
      <trkpt lat="48.71577" lon="2.48255">
        <ele>38</ele>
        <time>2024-04-04T14:43:53+02:00</time>
      </trkpt>
      <trkpt lat="48.71576" lon="2.4822">
        <ele>35</ele>
        <time>2024-04-04T14:44:19+02:00</time>
      </trkpt>
      <trkpt lat="48.7158" lon="2.48186">
        <ele>37</ele>
        <time>2024-04-04T14:44:45+02:00</time>
      </trkpt>
      <trkpt lat="48.71583" lon="2.48151">
        <ele>36</ele>
        <time>2024-04-04T14:45:10+02:00</time>
      </trkpt>
      <trkpt lat="48.71575" lon="2.48119">
        <ele>35</ele>
        <time>2024-04-04T14:45:36+02:00</time>
      </trkpt>
      <trkpt lat="48.71568" lon="2.48086">
        <ele>35</ele>
        <time>2024-04-04T14:46:04+02:00</time>
      </trkpt>
      <trkpt lat="48.71571" lon="2.48052">
        <ele>36</ele>
        <time>2024-04-04T14:46:32+02:00</time>
      </trkpt>
      <trkpt lat="48.71561" lon="2.48021">
        <ele>34</ele>
        <time>2024-04-04T14:46:54+02:00</time>
      </trkpt>
      <trkpt lat="48.71552" lon="2.47988">
        <ele>35</ele>
        <time>2024-04-04T14:47:21+02:00</time>
      </trkpt>
      <trkpt lat="48.71537" lon="2.48013">
        <ele>36</ele>
        <time>2024-04-04T14:50:07+02:00</time>
      </trkpt>
      <trkpt lat="48.71532" lon="2.48049">
        <ele>36</ele>
        <time>2024-04-04T14:50:36+02:00</time>
      </trkpt>
      <trkpt lat="48.71527" lon="2.48084">
        <ele>39</ele>
        <time>2024-04-04T14:51:04+02:00</time>
      </trkpt>
      <trkpt lat="48.71512" lon="2.4811">
        <ele>37</ele>
        <time>2024-04-04T14:51:35+02:00</time>
      </trkpt>
      <trkpt lat="48.71505" lon="2.48144">
        <ele>39</ele>
        <time>2024-04-04T14:52:02+02:00</time>
      </trkpt>
      <trkpt lat="48.71505" lon="2.48178">
        <ele>36</ele>
        <time>2024-04-04T14:52:26+02:00</time>
      </trkpt>
      <trkpt lat="48.7151" lon="2.48214">
        <ele>37</ele>
        <time>2024-04-04T14:52:50+02:00</time>
      </trkpt>
      <trkpt lat="48.71508" lon="2.48249">
        <ele>38</ele>
        <time>2024-04-04T14:53:20+02:00</time>
      </trkpt>
      <trkpt lat="48.71499" lon="2.48281">
        <ele>37</ele>
        <time>2024-04-04T14:53:45+02:00</time>
      </trkpt>
      <trkpt lat="48.71497" lon="2.48317">
        <ele>35</ele>
        <time>2024-04-04T14:54:11+02:00</time>
      </trkpt>
      <trkpt lat="48.71493" lon="2.48351">
        <ele>38</ele>
        <time>2024-04-04T14:54:34+02:00</time>
      </trkpt>
      <trkpt lat="48.71489" lon="2.48384">
        <ele>36</ele>
        <time>2024-04-04T14:55:02+02:00</time>
      </trkpt>
      <trkpt lat="48.71496" lon="2.48419">
        <ele>37</ele>
        <time>2024-04-04T14:55:24+02:00</time>
      </trkpt>
      <trkpt lat="48.71505" lon="2.4845">
        <ele>37</ele>
        <time>2024-04-04T14:55:54+02:00</time>
      </trkpt>
      <trkpt lat="48.71483" lon="2.48449">
        <ele>37</ele>
        <time>2024-04-04T14:56:38+02:00</time>
      </trkpt>
      <trkpt lat="48.7146" lon="2.4845">
        <ele>35</ele>
        <time>2024-04-04T14:57:07+02:00</time>
      </trkpt>
      <trkpt lat="48.7144" lon="2.48466">
        <ele>39</ele>
        <time>2024-04-04T14:57:46+02:00</time>
      </trkpt>
      <trkpt lat="48.71417" lon="2.48466">
        <ele>37</ele>
        <time>2024-04-04T14:58:25+02:00</time>
      </trkpt>
      <trkpt lat="48.71396" lon="2.48478">
        <ele>41</ele>
        <time>2024-04-04T14:58:50+02:00</time>
      </trkpt>
      <trkpt lat="48.71377" lon="2.485">
        <ele>41</ele>
        <time>2024-04-04T14:59:13+02:00</time>
      </trkpt>
      <trkpt lat="48.71368" lon="2.48532">
        <ele>43</ele>
        <time>2024-04-04T14:59:38+02:00</time>
      </trkpt>
      <trkpt lat="48.7137" lon="2.48566">
        <ele>42</ele>
        <time>2024-04-04T14:59:58+02:00</time>
      </trkpt>
      <trkpt lat="48.7137" lon="2.48601">
        <ele>41</ele>
        <time>2024-04-04T15:00:21+02:00</time>
      </trkpt>
      <trkpt lat="48.71362" lon="2.48634">
        <ele>42</ele>
        <time>2024-04-04T15:01:04+02:00</time>
      </trkpt>
      <trkpt lat="48.71372" lon="2.48666">
        <ele>42</ele>
        <time>2024-04-04T15:01:58+02:00</time>
      </trkpt>
      <trkpt lat="48.71372" lon="2.48702">
        <ele>43</ele>
        <time>2024-04-04T15:02:28+02:00</time>
      </trkpt>
      <trkpt lat="48.7137" lon="2.48737">
        <ele>43</ele>
        <time>2024-04-04T15:08:49+02:00</time>
      </trkpt>
      <trkpt lat="48.71369" lon="2.48771">
        <ele>41</ele>
        <time>2024-04-04T15:09:14+02:00</time>
      </trkpt>
      <trkpt lat="48.71363" lon="2.48805">
        <ele>41</ele>
        <time>2024-04-04T15:09:36+02:00</time>
      </trkpt>
      <trkpt lat="48.71349" lon="2.48832">
        <ele>43</ele>
        <time>2024-04-04T15:10:00+02:00</time>
      </trkpt>
      <trkpt lat="48.71328" lon="2.48846">
        <ele>42</ele>
        <time>2024-04-04T15:10:32+02:00</time>
      </trkpt>
      <trkpt lat="48.71342" lon="2.48877">
        <ele>40</ele>
        <time>2024-04-04T15:11:28+02:00</time>
      </trkpt>
      <trkpt lat="48.71342" lon="2.48911">
        <ele>40</ele>
        <time>2024-04-04T15:11:58+02:00</time>
      </trkpt>
      <trkpt lat="48.7132" lon="2.48902">
        <ele>41</ele>
        <time>2024-04-04T15:12:34+02:00</time>
      </trkpt>
      <trkpt lat="48.71299" lon="2.48891">
        <ele>41</ele>
        <time>2024-04-04T15:13:02+02:00</time>
      </trkpt>
      <trkpt lat="48.71283" lon="2.48866">
        <ele>42</ele>
        <time>2024-04-04T15:13:32+02:00</time>
      </trkpt>
      <trkpt lat="48.71263" lon="2.48883">
        <ele>44</ele>
        <time>2024-04-04T15:13:57+02:00</time>
      </trkpt>
      <trkpt lat="48.71266" lon="2.48918">
        <ele>42</ele>
        <time>2024-04-04T15:14:30+02:00</time>
      </trkpt>
      <trkpt lat="48.71261" lon="2.48952">
        <ele>41</ele>
        <time>2024-04-04T15:15:06+02:00</time>
      </trkpt>
      <trkpt lat="48.71252" lon="2.48984">
        <ele>40</ele>
        <time>2024-04-04T15:15:32+02:00</time>
      </trkpt>
      <trkpt lat="48.71243" lon="2.49016">
        <ele>41</ele>
        <time>2024-04-04T15:15:55+02:00</time>
      </trkpt>
      <trkpt lat="48.71242" lon="2.49051">
        <ele>41</ele>
        <time>2024-04-04T15:16:20+02:00</time>
      </trkpt>
      <trkpt lat="48.71241" lon="2.49086">
        <ele>41</ele>
        <time>2024-04-04T15:16:46+02:00</time>
      </trkpt>
      <trkpt lat="48.71224" lon="2.49111">
        <ele>40</ele>
        <time>2024-04-04T15:17:12+02:00</time>
      </trkpt>
      <trkpt lat="48.71202" lon="2.49116">
        <ele>40</ele>
        <time>2024-04-04T15:17:34+02:00</time>
      </trkpt>
      <trkpt lat="48.71179" lon="2.4912">
        <ele>40</ele>
        <time>2024-04-04T15:17:58+02:00</time>
      </trkpt>
      <trkpt lat="48.71157" lon="2.49127">
        <ele>39</ele>
        <time>2024-04-04T15:18:29+02:00</time>
      </trkpt>
      <trkpt lat="48.71135" lon="2.4913">
        <ele>42</ele>
        <time>2024-04-04T15:18:56+02:00</time>
      </trkpt>
      <trkpt lat="48.71112" lon="2.49127">
        <ele>45</ele>
        <time>2024-04-04T15:19:20+02:00</time>
      </trkpt>
      <trkpt lat="48.71093" lon="2.49107">
        <ele>44</ele>
        <time>2024-04-04T15:19:49+02:00</time>
      </trkpt>
      <trkpt lat="48.71074" lon="2.49128">
        <ele>42</ele>
        <time>2024-04-04T15:20:16+02:00</time>
      </trkpt>
      <trkpt lat="48.71057" lon="2.49151">
        <ele>42</ele>
        <time>2024-04-04T15:20:44+02:00</time>
      </trkpt>
      <trkpt lat="48.71036" lon="2.49139">
        <ele>45</ele>
        <time>2024-04-04T15:21:11+02:00</time>
      </trkpt>
      <trkpt lat="48.71015" lon="2.49126">
        <ele>45</ele>
        <time>2024-04-04T15:21:39+02:00</time>
      </trkpt>
      <trkpt lat="48.70991" lon="2.49124">
        <ele>48</ele>
        <time>2024-04-04T15:22:10+02:00</time>
      </trkpt>
      <trkpt lat="48.70977" lon="2.49151">
        <ele>45</ele>
        <time>2024-04-04T15:22:44+02:00</time>
      </trkpt>
      <trkpt lat="48.70959" lon="2.49129">
        <ele>48</ele>
        <time>2024-04-04T15:23:12+02:00</time>
      </trkpt>
      <trkpt lat="48.70939" lon="2.49146">
        <ele>47</ele>
        <time>2024-04-04T15:23:45+02:00</time>
      </trkpt>
      <trkpt lat="48.7092" lon="2.49166">
        <ele>46</ele>
        <time>2024-04-04T15:24:08+02:00</time>
      </trkpt>
      <trkpt lat="48.70902" lon="2.49188">
        <ele>46</ele>
        <time>2024-04-04T15:24:33+02:00</time>
      </trkpt>
      <trkpt lat="48.70883" lon="2.49209">
        <ele>44</ele>
        <time>2024-04-04T15:24:57+02:00</time>
      </trkpt>
      <trkpt lat="48.70864" lon="2.49229">
        <ele>46</ele>
        <time>2024-04-04T15:25:19+02:00</time>
      </trkpt>
      <trkpt lat="48.70847" lon="2.49251">
        <ele>46</ele>
        <time>2024-04-04T15:25:44+02:00</time>
      </trkpt>
      <trkpt lat="48.70829" lon="2.49272">
        <ele>46</ele>
        <time>2024-04-04T15:26:08+02:00</time>
      </trkpt>
      <trkpt lat="48.7081" lon="2.4929">
        <ele>46</ele>
        <time>2024-04-04T15:26:29+02:00</time>
      </trkpt>
      <trkpt lat="48.70792" lon="2.49312">
        <ele>44</ele>
        <time>2024-04-04T15:26:52+02:00</time>
      </trkpt>
      <trkpt lat="48.70772" lon="2.49331">
        <ele>44</ele>
        <time>2024-04-04T15:27:15+02:00</time>
      </trkpt>
      <trkpt lat="48.70754" lon="2.49353">
        <ele>46</ele>
        <time>2024-04-04T15:27:38+02:00</time>
      </trkpt>
      <trkpt lat="48.70736" lon="2.49374">
        <ele>44</ele>
        <time>2024-04-04T15:28:01+02:00</time>
      </trkpt>
      <trkpt lat="48.70717" lon="2.49395">
        <ele>44</ele>
        <time>2024-04-04T15:28:24+02:00</time>
      </trkpt>
      <trkpt lat="48.70695" lon="2.49406">
        <ele>43</ele>
        <time>2024-04-04T15:29:08+02:00</time>
      </trkpt>
      <trkpt lat="48.70672" lon="2.49412">
        <ele>47</ele>
        <time>2024-04-04T15:29:35+02:00</time>
      </trkpt>
      <trkpt lat="48.70648" lon="2.49421">
        <ele>48</ele>
        <time>2024-04-04T15:30:01+02:00</time>
      </trkpt>
      <trkpt lat="48.70615" lon="2.49395">
        <ele>47</ele>
        <time>2024-04-04T15:30:34+02:00</time>
      </trkpt>
      <trkpt lat="48.70603" lon="2.49403">
        <ele>50</ele>
        <time>2024-04-04T15:30:43+02:00</time>
      </trkpt>
      <trkpt lat="48.70581" lon="2.49404">
        <ele>46</ele>
        <time>2024-04-04T15:34:21+02:00</time>
      </trkpt>
      <trkpt lat="48.70558" lon="2.49396">
        <ele>45</ele>
        <time>2024-04-04T15:34:56+02:00</time>
      </trkpt>
      <trkpt lat="48.70535" lon="2.49397">
        <ele>44</ele>
        <time>2024-04-04T15:35:18+02:00</time>
      </trkpt>
      <trkpt lat="48.70512" lon="2.49392">
        <ele>43</ele>
        <time>2024-04-04T15:35:48+02:00</time>
      </trkpt>
      <trkpt lat="48.70488" lon="2.49386">
        <ele>44</ele>
        <time>2024-04-04T15:36:21+02:00</time>
      </trkpt>
      <trkpt lat="48.70466" lon="2.49382">
        <ele>43</ele>
        <time>2024-04-04T15:36:43+02:00</time>
      </trkpt>
      <trkpt lat="48.70443" lon="2.49378">
        <ele>42</ele>
        <time>2024-04-04T15:37:08+02:00</time>
      </trkpt>
      <trkpt lat="48.7042" lon="2.49371">
        <ele>41</ele>
        <time>2024-04-04T15:37:30+02:00</time>
      </trkpt>
      <trkpt lat="48.70397" lon="2.49369">
        <ele>39</ele>
        <time>2024-04-04T15:37:52+02:00</time>
      </trkpt>
      <trkpt lat="48.70375" lon="2.49365">
        <ele>42</ele>
        <time>2024-04-04T15:38:15+02:00</time>
      </trkpt>
      <trkpt lat="48.70352" lon="2.49359">
        <ele>38</ele>
        <time>2024-04-04T15:38:39+02:00</time>
      </trkpt>
      <trkpt lat="48.7033" lon="2.49355">
        <ele>38</ele>
        <time>2024-04-04T15:39:00+02:00</time>
      </trkpt>
      <trkpt lat="48.70306" lon="2.49349">
        <ele>39</ele>
        <time>2024-04-04T15:39:20+02:00</time>
      </trkpt>
      <trkpt lat="48.70283" lon="2.49344">
        <ele>38</ele>
        <time>2024-04-04T15:39:43+02:00</time>
      </trkpt>
      <trkpt lat="48.70261" lon="2.49335">
        <ele>38</ele>
        <time>2024-04-04T15:40:06+02:00</time>
      </trkpt>
      <trkpt lat="48.70238" lon="2.49328">
        <ele>38</ele>
        <time>2024-04-04T15:40:25+02:00</time>
      </trkpt>
      <trkpt lat="48.70215" lon="2.49322">
        <ele>38</ele>
        <time>2024-04-04T15:40:47+02:00</time>
      </trkpt>
      <trkpt lat="48.70194" lon="2.49334">
        <ele>37</ele>
        <time>2024-04-04T15:41:10+02:00</time>
      </trkpt>
      <trkpt lat="48.7017" lon="2.49336">
        <ele>39</ele>
        <time>2024-04-04T15:41:28+02:00</time>
      </trkpt>
      <trkpt lat="48.70159" lon="2.49367">
        <ele>38</ele>
        <time>2024-04-04T15:42:51+02:00</time>
      </trkpt>
      <trkpt lat="48.70151" lon="2.49399">
        <ele>39</ele>
        <time>2024-04-04T15:43:18+02:00</time>
      </trkpt>
      <trkpt lat="48.70138" lon="2.49427">
        <ele>38</ele>
        <time>2024-04-04T15:43:52+02:00</time>
      </trkpt>
      <trkpt lat="48.70121" lon="2.49449">
        <ele>37</ele>
        <time>2024-04-04T15:44:12+02:00</time>
      </trkpt>
      <trkpt lat="48.70099" lon="2.49467">
        <ele>38</ele>
        <time>2024-04-04T15:44:35+02:00</time>
      </trkpt>
      <trkpt lat="48.7008" lon="2.49487">
        <ele>37</ele>
        <time>2024-04-04T15:44:58+02:00</time>
      </trkpt>
      <trkpt lat="48.70062" lon="2.49507">
        <ele>38</ele>
        <time>2024-04-04T15:45:19+02:00</time>
      </trkpt>
      <trkpt lat="48.70051" lon="2.49537">
        <ele>37</ele>
        <time>2024-04-04T15:45:42+02:00</time>
      </trkpt>
      <trkpt lat="48.70041" lon="2.49568">
        <ele>38</ele>
        <time>2024-04-04T15:46:04+02:00</time>
      </trkpt>
      <trkpt lat="48.70017" lon="2.49571">
        <ele>37</ele>
        <time>2024-04-04T15:46:27+02:00</time>
      </trkpt>
      <trkpt lat="48.70004" lon="2.49544">
        <ele>37</ele>
        <time>2024-04-04T15:47:04+02:00</time>
      </trkpt>
      <trkpt lat="48.69992" lon="2.49514">
        <ele>37</ele>
        <time>2024-04-04T15:47:30+02:00</time>
      </trkpt>
      <trkpt lat="48.69971" lon="2.49498">
        <ele>37</ele>
        <time>2024-04-04T15:47:52+02:00</time>
      </trkpt>
      <trkpt lat="48.69949" lon="2.49489">
        <ele>37</ele>
        <time>2024-04-04T15:48:25+02:00</time>
      </trkpt>
      <trkpt lat="48.69927" lon="2.49495">
        <ele>37</ele>
        <time>2024-04-04T15:48:55+02:00</time>
      </trkpt>
      <trkpt lat="48.6993" lon="2.49434">
        <ele>37.7</ele>
      </trkpt>
      <trkpt lat="48.69903" lon="2.4945">
        <ele>38</ele>
        <time>2024-04-04T15:49:31+02:00</time>
      </trkpt>
    </trkseg>
  </trk>
</gpx>